ARG1676 SABE-SAZS
Flight info
| Callsign | ARG1676 |
|---|---|
| Flight time | N/A |
| Altitude | 38000 |
| Route | PAL9 TORUL UT654 ORERA ORERA2Q |
| Aircraft | B738/M-SDE2E3FGHIRWXY/LB1 |
Departure
| Time | N/A |
|---|---|
| Airport | Aeroparque Jorge Newbery (SABE) |
Arrival
| Time | 2026-04-29 20:58 |
|---|---|
| Airport | Teniente Luis Candelaria International Airport (SAZS) |
| Time | Latitude | Longitude | Altitude | Speed | Heading |
|---|---|---|---|---|---|
| 2026-04-29 19:06 | -35.83774 | -60.26005 | 37912 ft | 379 kts | 237° |
| 2026-04-29 19:07 | -35.85802 | -60.29547 | 37912 ft | 380 kts | 236° |
| 2026-04-29 19:07 | -35.88352 | -60.33996 | 37911 ft | 380 kts | 237° |
| 2026-04-29 19:08 | -35.91897 | -60.40186 | 37913 ft | 379 kts | 236° |
| 2026-04-29 19:08 | -35.94439 | -60.44638 | 37913 ft | 379 kts | 237° |
| 2026-04-29 19:09 | -35.97976 | -60.50855 | 37916 ft | 379 kts | 237° |
| 2026-04-29 19:09 | -36.00506 | -60.55303 | 37917 ft | 380 kts | 237° |
| 2026-04-29 19:10 | -36.04043 | -60.61524 | 37913 ft | 378 kts | 236° |
| 2026-04-29 19:10 | -36.06556 | -60.65957 | 37924 ft | 377 kts | 236° |
| 2026-04-29 19:11 | -36.09556 | -60.71247 | 37915 ft | 376 kts | 237° |
| 2026-04-29 19:11 | -36.13063 | -60.77452 | 37913 ft | 376 kts | 237° |
| 2026-04-29 19:12 | -36.16047 | -60.82771 | 37915 ft | 375 kts | 238° |
| 2026-04-29 19:12 | -36.18518 | -60.87197 | 37914 ft | 376 kts | 237° |
| 2026-04-29 19:13 | -36.21507 | -60.92541 | 37914 ft | 376 kts | 238° |
| 2026-04-29 19:13 | -36.24971 | -60.98746 | 37916 ft | 375 kts | 237° |
| 2026-04-29 19:14 | -36.27449 | -61.03196 | 37918 ft | 375 kts | 237° |
| 2026-04-29 19:14 | -36.30408 | -61.08493 | 37922 ft | 373 kts | 237° |
| 2026-04-29 19:15 | -36.33364 | -61.13790 | 37918 ft | 374 kts | 237° |
| 2026-04-29 19:15 | -36.36295 | -61.19093 | 37904 ft | 372 kts | 237° |
| 2026-04-29 19:16 | -36.39234 | -61.24405 | 37918 ft | 372 kts | 237° |
| 2026-04-29 19:16 | -36.42159 | -61.29698 | 37913 ft | 371 kts | 237° |
| 2026-04-29 19:17 | -36.45067 | -61.34974 | 37905 ft | 370 kts | 237° |
| 2026-04-29 19:17 | -36.47980 | -61.40253 | 37904 ft | 370 kts | 237° |
| 2026-04-29 19:18 | -36.51357 | -61.46392 | 37905 ft | 369 kts | 237° |
| 2026-04-29 19:18 | -36.53764 | -61.50775 | 37910 ft | 370 kts | 236° |
| 2026-04-29 19:19 | -36.57155 | -61.56957 | 37901 ft | 370 kts | 237° |
| 2026-04-29 19:19 | -36.60036 | -61.62230 | 37905 ft | 368 kts | 237° |
| 2026-04-29 19:20 | -36.62912 | -61.67486 | 37902 ft | 368 kts | 237° |
| 2026-04-29 19:20 | -36.65311 | -61.71891 | 37904 ft | 369 kts | 237° |
| 2026-04-29 19:21 | -36.68661 | -61.78037 | 37903 ft | 366 kts | 237° |
| 2026-04-29 19:21 | -36.71048 | -61.82412 | 37918 ft | 368 kts | 237° |
| 2026-04-29 19:22 | -36.74405 | -61.88587 | 37913 ft | 366 kts | 237° |
| 2026-04-29 19:22 | -36.77253 | -61.93834 | 37910 ft | 365 kts | 237° |
| 2026-04-29 19:23 | -36.80067 | -61.99056 | 37897 ft | 365 kts | 238° |
| 2026-04-29 19:23 | -36.82895 | -62.04322 | 37901 ft | 365 kts | 237° |
| 2026-04-29 19:24 | -36.85741 | -62.09587 | 37896 ft | 364 kts | 237° |
| 2026-04-29 19:24 | -36.88576 | -62.14831 | 37888 ft | 363 kts | 237° |
| 2026-04-29 19:25 | -36.91396 | -62.20068 | 37900 ft | 364 kts | 237° |
| 2026-04-29 19:25 | -36.93744 | -62.24428 | 37893 ft | 363 kts | 237° |
| 2026-04-29 19:26 | -36.97033 | -62.30542 | 37889 ft | 363 kts | 237° |
| 2026-04-29 19:26 | -36.99857 | -62.35807 | 37892 ft | 364 kts | 237° |
| 2026-04-29 19:27 | -37.02658 | -62.41046 | 37891 ft | 362 kts | 237° |
| 2026-04-29 19:27 | -37.05460 | -62.46278 | 37891 ft | 364 kts | 237° |
| 2026-04-29 19:28 | -37.08290 | -62.51562 | 37884 ft | 362 kts | 237° |
| 2026-04-29 19:28 | -37.10618 | -62.55969 | 37896 ft | 363 kts | 237° |
| 2026-04-29 19:29 | -37.13904 | -62.62148 | 37893 ft | 365 kts | 237° |
| 2026-04-29 19:29 | -37.16243 | -62.66557 | 37892 ft | 363 kts | 237° |
| 2026-04-29 19:30 | -37.19030 | -62.71846 | 37900 ft | 363 kts | 237° |
| 2026-04-29 19:30 | -37.22281 | -62.77971 | 37898 ft | 362 kts | 237° |
| 2026-04-29 19:31 | -37.25069 | -62.83234 | 37898 ft | 362 kts | 237° |
| 2026-04-29 19:31 | -37.27849 | -62.88493 | 37906 ft | 362 kts | 237° |
| 2026-04-29 19:32 | -37.30626 | -62.93756 | 37907 ft | 361 kts | 238° |
| 2026-04-29 19:32 | -37.32931 | -62.98165 | 37908 ft | 361 kts | 237° |
| 2026-04-29 19:33 | -37.35701 | -63.03431 | 37904 ft | 361 kts | 237° |
| 2026-04-29 19:33 | -37.38458 | -63.08671 | 37887 ft | 360 kts | 237° |
| 2026-04-29 19:34 | -37.41237 | -63.13942 | 37896 ft | 359 kts | 237° |
| 2026-04-29 19:34 | -37.43983 | -63.19170 | 37894 ft | 361 kts | 237° |
| 2026-04-29 19:35 | -37.47187 | -63.25314 | 37896 ft | 359 kts | 237° |
| 2026-04-29 19:35 | -37.49472 | -63.29694 | 37897 ft | 358 kts | 236° |
| 2026-04-29 19:36 | -37.52668 | -63.35801 | 37896 ft | 359 kts | 236° |
| 2026-04-29 19:36 | -37.55405 | -63.41054 | 37893 ft | 358 kts | 236° |
| 2026-04-29 19:37 | -37.58127 | -63.46307 | 37894 ft | 358 kts | 237° |
| 2026-04-29 19:37 | -37.60849 | -63.51543 | 37889 ft | 357 kts | 237° |
| 2026-04-29 19:38 | -37.63127 | -63.55936 | 37887 ft | 358 kts | 237° |
| 2026-04-29 19:38 | -37.65847 | -63.61164 | 37888 ft | 358 kts | 237° |
| 2026-04-29 19:39 | -37.69035 | -63.67323 | 37884 ft | 359 kts | 237° |
| 2026-04-29 19:39 | -37.71304 | -63.71737 | 37883 ft | 358 kts | 237° |
| 2026-04-29 19:40 | -37.74010 | -63.76997 | 37885 ft | 358 kts | 237° |
| 2026-04-29 19:40 | -37.76725 | -63.82270 | 37881 ft | 358 kts | 237° |
| 2026-04-29 19:41 | -37.79430 | -63.87537 | 37884 ft | 357 kts | 238° |
| 2026-04-29 19:41 | -37.82137 | -63.92810 | 37892 ft | 359 kts | 238° |
| 2026-04-29 19:42 | -37.85298 | -63.98994 | 37892 ft | 358 kts | 237° |
| 2026-04-29 19:42 | -37.87538 | -64.03373 | 37896 ft | 357 kts | 238° |
| 2026-04-29 19:43 | -37.90223 | -64.08647 | 37895 ft | 357 kts | 238° |
| 2026-04-29 19:43 | -37.92925 | -64.13940 | 37895 ft | 357 kts | 237° |
| 2026-04-29 19:44 | -37.96055 | -64.20076 | 37897 ft | 356 kts | 237° |
| 2026-04-29 19:44 | -37.98760 | -64.25416 | 37904 ft | 357 kts | 237° |
| 2026-04-29 19:45 | -38.01417 | -64.30657 | 37900 ft | 355 kts | 237° |
| 2026-04-29 19:45 | -38.04077 | -64.35907 | 37891 ft | 354 kts | 237° |
| 2026-04-29 19:46 | -38.06305 | -64.40326 | 37890 ft | 354 kts | 237° |
| 2026-04-29 19:46 | -38.08950 | -64.45569 | 37889 ft | 353 kts | 237° |
| 2026-04-29 19:47 | -38.11619 | -64.50854 | 37874 ft | 354 kts | 237° |
| 2026-04-29 19:47 | -38.14704 | -64.57000 | 37865 ft | 354 kts | 237° |
| 2026-04-29 19:48 | -38.16890 | -64.61368 | 37872 ft | 352 kts | 237° |
| 2026-04-29 19:48 | -38.19518 | -64.66643 | 37870 ft | 352 kts | 238° |
| 2026-04-29 19:49 | -38.22154 | -64.71919 | 37868 ft | 352 kts | 238° |
| 2026-04-29 19:49 | -38.25203 | -64.78020 | 37872 ft | 351 kts | 237° |
| 2026-04-29 19:50 | -38.27827 | -64.83274 | 37875 ft | 351 kts | 238° |
| 2026-04-29 19:50 | -38.30429 | -64.88538 | 37875 ft | 351 kts | 238° |
| 2026-04-29 19:51 | -38.33034 | -64.93813 | 37876 ft | 350 kts | 237° |
| 2026-04-29 19:51 | -38.35209 | -64.98178 | 37875 ft | 351 kts | 237° |
| 2026-04-29 19:52 | -38.37832 | -65.03495 | 37875 ft | 353 kts | 237° |
| 2026-04-29 19:52 | -38.40842 | -65.09629 | 37873 ft | 350 kts | 237° |
| 2026-04-29 19:53 | -38.43011 | -65.14023 | 37874 ft | 352 kts | 238° |
| 2026-04-29 19:53 | -38.45616 | -65.19286 | 37875 ft | 349 kts | 237° |
| 2026-04-29 19:54 | -38.49514 | -65.27205 | 37877 ft | 349 kts | 238° |
| 2026-04-29 19:54 | -38.52072 | -65.32455 | 37874 ft | 349 kts | 238° |
| 2026-04-29 19:55 | -38.54648 | -65.37692 | 37878 ft | 348 kts | 237° |
| 2026-04-29 19:55 | -38.57655 | -65.43842 | 37876 ft | 348 kts | 238° |
| 2026-04-29 19:56 | -38.60206 | -65.49068 | 37875 ft | 345 kts | 237° |
| 2026-04-29 19:56 | -38.62310 | -65.53400 | 37871 ft | 346 kts | 238° |
| 2026-04-29 19:57 | -38.64867 | -65.58665 | 37873 ft | 346 kts | 237° |
| 2026-04-29 19:57 | -38.67834 | -65.64713 | 37872 ft | 343 kts | 238° |
| 2026-04-29 19:58 | -38.69944 | -65.69085 | 37868 ft | 345 kts | 239° |
| 2026-04-29 19:58 | -38.72881 | -65.75153 | 37876 ft | 342 kts | 238° |
| 2026-04-29 19:59 | -38.74966 | -65.79462 | 37871 ft | 342 kts | 239° |
| 2026-04-29 19:59 | -38.77883 | -65.85552 | 37872 ft | 342 kts | 239° |
| 2026-04-29 20:00 | -38.80397 | -65.90758 | 37874 ft | 343 kts | 238° |
| 2026-04-29 20:00 | -38.82881 | -65.95907 | 37868 ft | 339 kts | 238° |
| 2026-04-29 20:01 | -38.85370 | -66.01083 | 37879 ft | 339 kts | 238° |
| 2026-04-29 20:01 | -38.87419 | -66.05353 | 37881 ft | 338 kts | 239° |
| 2026-04-29 20:02 | -38.89857 | -66.10534 | 37884 ft | 339 kts | 239° |
| 2026-04-29 20:02 | -38.91909 | -66.14820 | 37882 ft | 337 kts | 239° |
| 2026-04-29 20:03 | -38.94758 | -66.20789 | 37884 ft | 337 kts | 239° |
| 2026-04-29 20:03 | -38.97617 | -66.26792 | 37887 ft | 338 kts | 238° |
| 2026-04-29 20:04 | -39.00050 | -66.31916 | 37881 ft | 336 kts | 238° |
| 2026-04-29 20:04 | -39.02499 | -66.37086 | 37875 ft | 337 kts | 239° |
| 2026-04-29 20:05 | -39.04527 | -66.41371 | 37870 ft | 337 kts | 239° |
| 2026-04-29 20:05 | -39.06948 | -66.46468 | 37873 ft | 334 kts | 238° |
| 2026-04-29 20:06 | -39.09371 | -66.51609 | 37875 ft | 335 kts | 238° |
| 2026-04-29 20:06 | -39.11777 | -66.56782 | 37873 ft | 334 kts | 240° |
| 2026-04-29 20:07 | -39.14547 | -66.62796 | 37874 ft | 335 kts | 239° |
| 2026-04-29 20:07 | -39.16562 | -66.67101 | 37869 ft | 334 kts | 239° |
| 2026-04-29 20:08 | -39.18575 | -66.71368 | 37864 ft | 333 kts | 239° |
| 2026-04-29 20:08 | -39.21360 | -66.77316 | 37863 ft | 333 kts | 239° |
| 2026-04-29 20:09 | -39.24166 | -66.83260 | 37864 ft | 332 kts | 240° |
| 2026-04-29 20:09 | -39.26553 | -66.88384 | 37804 ft | 331 kts | 240° |
| 2026-04-29 20:10 | -39.28508 | -66.92619 | 38011 ft | 333 kts | 240° |
| 2026-04-29 20:10 | -39.29687 | -66.95221 | 37869 ft | 332 kts | 240° |
| 2026-04-29 20:10 | -39.30858 | -66.97756 | 37865 ft | 328 kts | 240° |
| 2026-04-29 20:11 | -39.33613 | -67.03642 | 37862 ft | 331 kts | 240° |
| 2026-04-29 20:11 | -39.35593 | -67.07913 | 37868 ft | 332 kts | 239° |
| 2026-04-29 20:12 | -39.37945 | -67.13018 | 37869 ft | 328 kts | 239° |
| 2026-04-29 20:12 | -39.40305 | -67.18115 | 37871 ft | 331 kts | 240° |
| 2026-04-29 20:13 | -39.42643 | -67.23193 | 37878 ft | 330 kts | 239° |
| 2026-04-29 20:13 | -39.44966 | -67.28275 | 37861 ft | 328 kts | 239° |
| 2026-04-29 20:14 | -39.47708 | -67.34203 | 37851 ft | 329 kts | 239° |
| 2026-04-29 20:14 | -39.49643 | -67.38442 | 37872 ft | 329 kts | 240° |
| 2026-04-29 20:15 | -39.51962 | -67.43531 | 37869 ft | 327 kts | 240° |
| 2026-04-29 20:15 | -39.54282 | -67.48624 | 37862 ft | 328 kts | 240° |
| 2026-04-29 20:16 | -39.57008 | -67.54582 | 37869 ft | 328 kts | 240° |
| 2026-04-29 20:16 | -39.58933 | -67.58830 | 37871 ft | 328 kts | 240° |
| 2026-04-29 20:17 | -39.61638 | -67.64764 | 37876 ft | 328 kts | 240° |
| 2026-04-29 20:17 | -39.63554 | -67.69056 | 37878 ft | 328 kts | 241° |
| 2026-04-29 20:18 | -39.65861 | -67.74165 | 37873 ft | 327 kts | 241° |
| 2026-04-29 20:18 | -39.68170 | -67.79254 | 37886 ft | 328 kts | 241° |
| 2026-04-29 20:19 | -39.70484 | -67.84357 | 37896 ft | 327 kts | 240° |
| 2026-04-29 20:19 | -39.72773 | -67.89455 | 37899 ft | 327 kts | 240° |
| 2026-04-29 20:20 | -39.75443 | -67.95403 | 37895 ft | 328 kts | 241° |
| 2026-04-29 20:20 | -39.77362 | -67.99661 | 37903 ft | 326 kts | 241° |
| 2026-04-29 20:21 | -39.79647 | -68.04756 | 37901 ft | 327 kts | 241° |
| 2026-04-29 20:21 | -39.81993 | -68.09815 | 37896 ft | 327 kts | 238° |
| 2026-04-29 20:22 | -39.84523 | -68.14739 | 37891 ft | 329 kts | 238° |
| 2026-04-29 20:22 | -39.87517 | -68.20509 | 37892 ft | 330 kts | 239° |
| 2026-04-29 20:23 | -39.89624 | -68.24657 | 37893 ft | 329 kts | 239° |
| 2026-04-29 20:23 | -39.92553 | -68.30499 | 37893 ft | 331 kts | 239° |
| 2026-04-29 20:24 | -39.94682 | -68.34679 | 37898 ft | 331 kts | 239° |
| 2026-04-29 20:24 | -39.97207 | -68.39683 | 37897 ft | 331 kts | 239° |
| 2026-04-29 20:25 | -39.99729 | -68.44693 | 37897 ft | 332 kts | 239° |
| 2026-04-29 20:25 | -40.02691 | -68.50581 | 37898 ft | 332 kts | 239° |
| 2026-04-29 20:26 | -40.04796 | -68.54778 | 37900 ft | 333 kts | 238° |
| 2026-04-29 20:26 | -40.07766 | -68.60694 | 37906 ft | 334 kts | 239° |
| 2026-04-29 20:27 | -40.09471 | -68.64090 | 37905 ft | 333 kts | 239° |
| 2026-04-29 20:27 | -40.12477 | -68.70089 | 37901 ft | 336 kts | 239° |
| 2026-04-29 20:28 | -40.15030 | -68.75198 | 37894 ft | 336 kts | 239° |
| 2026-04-29 20:28 | -40.18002 | -68.81154 | 37897 ft | 336 kts | 240° |
| 2026-04-29 20:29 | -40.20139 | -68.85434 | 37896 ft | 338 kts | 239° |
| 2026-04-29 20:29 | -40.23134 | -68.91454 | 37891 ft | 338 kts | 239° |
| 2026-04-29 20:30 | -40.25258 | -68.95743 | 37895 ft | 339 kts | 239° |
| 2026-04-29 20:30 | -40.28243 | -69.01801 | 37655 ft | 342 kts | 239° |
| 2026-04-29 20:31 | -40.29112 | -69.03565 | 37286 ft | 345 kts | 239° |
| 2026-04-29 20:31 | -40.30838 | -69.07053 | 36482 ft | 341 kts | 240° |
| 2026-04-29 20:31 | -40.31691 | -69.08783 | 36082 ft | 338 kts | 239° |
| 2026-04-29 20:31 | -40.33381 | -69.12206 | 35284 ft | 335 kts | 239° |
| 2026-04-29 20:32 | -40.34654 | -69.14790 | 34690 ft | 336 kts | 239° |
| 2026-04-29 20:32 | -40.35921 | -69.17357 | 34123 ft | 339 kts | 239° |
| 2026-04-29 20:32 | -40.37211 | -69.19965 | 33578 ft | 342 kts | 239° |
| 2026-04-29 20:32 | -40.38065 | -69.21699 | 33231 ft | 344 kts | 239° |
| 2026-04-29 20:33 | -40.39372 | -69.24357 | 32702 ft | 348 kts | 239° |
| 2026-04-29 20:33 | -40.40691 | -69.27035 | 32180 ft | 351 kts | 239° |
| 2026-04-29 20:33 | -40.42018 | -69.29737 | 31655 ft | 354 kts | 239° |
| 2026-04-29 20:33 | -40.43788 | -69.33351 | 30960 ft | 356 kts | 239° |
| 2026-04-29 20:34 | -40.45153 | -69.36142 | 30430 ft | 358 kts | 238° |
| 2026-04-29 20:34 | -40.46035 | -69.37938 | 30093 ft | 360 kts | 239° |
| 2026-04-29 20:34 | -40.47399 | -69.40730 | 29574 ft | 362 kts | 239° |
| 2026-04-29 20:34 | -40.48763 | -69.43533 | 29083 ft | 366 kts | 238° |
| 2026-04-29 20:35 | -40.50147 | -69.46370 | 28592 ft | 371 kts | 239° |
| 2026-04-29 20:35 | -40.52001 | -69.50157 | 27936 ft | 369 kts | 239° |
| 2026-04-29 20:35 | -40.52937 | -69.52067 | 27606 ft | 367 kts | 239° |
| 2026-04-29 20:35 | -40.54315 | -69.54885 | 27105 ft | 365 kts | 239° |
| 2026-04-29 20:36 | -40.55680 | -69.57690 | 26609 ft | 366 kts | 239° |
| 2026-04-29 20:36 | -40.57055 | -69.60520 | 26115 ft | 366 kts | 239° |
| 2026-04-29 20:36 | -40.58422 | -69.63345 | 25623 ft | 367 kts | 239° |
| 2026-04-29 20:36 | -40.60257 | -69.67140 | 24963 ft | 368 kts | 240° |
| 2026-04-29 20:37 | -40.61161 | -69.69008 | 24634 ft | 368 kts | 240° |
| 2026-04-29 20:37 | -40.62532 | -69.71843 | 24140 ft | 367 kts | 240° |
| 2026-04-29 20:37 | -40.63903 | -69.74677 | 23644 ft | 365 kts | 240° |
| 2026-04-29 20:37 | -40.65274 | -69.77512 | 23156 ft | 366 kts | 240° |
| 2026-04-29 20:38 | -40.67083 | -69.81259 | 22499 ft | 364 kts | 240° |
| 2026-04-29 20:38 | -40.68427 | -69.84042 | 22001 ft | 358 kts | 240° |
| 2026-04-29 20:38 | -40.69314 | -69.85884 | 21668 ft | 354 kts | 240° |
| 2026-04-29 20:38 | -40.71052 | -69.89495 | 21007 ft | 346 kts | 240° |
| 2026-04-29 20:39 | -40.72339 | -69.92169 | 20510 ft | 342 kts | 239° |
| 2026-04-29 20:39 | -40.73176 | -69.93913 | 20183 ft | 339 kts | 239° |
| 2026-04-29 20:39 | -40.74840 | -69.97379 | 19525 ft | 334 kts | 239° |
| 2026-04-29 20:39 | -40.75674 | -69.99119 | 19190 ft | 334 kts | 239° |
| 2026-04-29 20:40 | -40.76912 | -70.01701 | 18701 ft | 335 kts | 239° |
| 2026-04-29 20:40 | -40.78175 | -70.04337 | 18197 ft | 336 kts | 239° |
| 2026-04-29 20:40 | -40.79411 | -70.06923 | 17687 ft | 334 kts | 239° |
| 2026-04-29 20:40 | -40.80633 | -70.09483 | 17182 ft | 330 kts | 239° |
| 2026-04-29 20:41 | -40.81847 | -70.12022 | 16681 ft | 326 kts | 239° |
| 2026-04-29 20:41 | -40.83054 | -70.14548 | 16176 ft | 322 kts | 239° |
| 2026-04-29 20:41 | -40.84244 | -70.17045 | 15705 ft | 317 kts | 239° |
| 2026-04-29 20:41 | -40.85403 | -70.19474 | 15254 ft | 313 kts | 239° |
| 2026-04-29 20:42 | -40.86566 | -70.21913 | 14802 ft | 308 kts | 239° |
| 2026-04-29 20:42 | -40.88055 | -70.25047 | 14213 ft | 303 kts | 239° |
| 2026-04-29 20:42 | -40.88802 | -70.26618 | 13917 ft | 300 kts | 239° |
| 2026-04-29 20:42 | -40.89903 | -70.28941 | 13512 ft | 296 kts | 239° |
| 2026-04-29 20:43 | -40.90986 | -70.31221 | 13127 ft | 291 kts | 239° |
| 2026-04-29 20:43 | -40.92059 | -70.33479 | 12758 ft | 286 kts | 239° |
| 2026-04-29 20:43 | -40.93103 | -70.35680 | 12419 ft | 280 kts | 239° |
| 2026-04-29 20:43 | -40.94467 | -70.38559 | 11969 ft | 273 kts | 240° |
| 2026-04-29 20:44 | -40.95453 | -70.40640 | 11625 ft | 268 kts | 240° |
| 2026-04-29 20:44 | -40.96113 | -70.42039 | 11395 ft | 265 kts | 240° |
| 2026-04-29 20:44 | -40.97088 | -70.44099 | 11045 ft | 261 kts | 239° |
| 2026-04-29 20:44 | -40.98494 | -70.46642 | 10633 ft | 255 kts | 234° |
| 2026-04-29 20:45 | -40.99249 | -70.47839 | 10436 ft | 251 kts | 233° |
| 2026-04-29 20:45 | -41.00734 | -70.50155 | 10076 ft | 243 kts | 233° |
| 2026-04-29 20:45 | -41.01447 | -70.51281 | 9912 ft | 239 kts | 233° |
| 2026-04-29 20:45 | -41.02508 | -70.52998 | 9665 ft | 237 kts | 234° |
| 2026-04-29 20:46 | -41.03884 | -70.55252 | 9345 ft | 239 kts | 234° |
| 2026-04-29 20:46 | -41.04588 | -70.56394 | 9178 ft | 238 kts | 234° |
| 2026-04-29 20:46 | -41.05987 | -70.58648 | 8845 ft | 237 kts | 234° |
| 2026-04-29 20:46 | -41.06682 | -70.59777 | 8679 ft | 236 kts | 234° |
| 2026-04-29 20:47 | -41.07720 | -70.61471 | 8427 ft | 238 kts | 234° |
| 2026-04-29 20:47 | -41.08762 | -70.63174 | 8180 ft | 237 kts | 234° |
| 2026-04-29 20:47 | -41.09798 | -70.64869 | 7929 ft | 237 kts | 234° |
| 2026-04-29 20:47 | -41.10857 | -70.66582 | 7674 ft | 236 kts | 234° |
| 2026-04-29 20:48 | -41.11903 | -70.68273 | 7420 ft | 234 kts | 235° |
| 2026-04-29 20:48 | -41.12918 | -70.69921 | 7303 ft | 224 kts | 236° |
| 2026-04-29 20:48 | -41.13879 | -70.71498 | 7291 ft | 213 kts | 235° |
| 2026-04-29 20:48 | -41.14791 | -70.72987 | 7303 ft | 209 kts | 235° |
| 2026-04-29 20:49 | -41.15726 | -70.74511 | 7303 ft | 213 kts | 236° |
| 2026-04-29 20:49 | -41.16954 | -70.76518 | 7288 ft | 202 kts | 236° |
| 2026-04-29 20:49 | -41.17535 | -70.77459 | 7289 ft | 194 kts | 235° |
| 2026-04-29 20:49 | -41.18374 | -70.78820 | 7322 ft | 185 kts | 236° |
| 2026-04-29 20:50 | -41.19187 | -70.80151 | 7308 ft | 187 kts | 236° |
| 2026-04-29 20:50 | -41.19994 | -70.81475 | 7231 ft | 178 kts | 237° |
| 2026-04-29 20:50 | -41.20758 | -70.82735 | 7098 ft | 171 kts | 237° |
| 2026-04-29 20:50 | -41.21735 | -70.84328 | 6948 ft | 162 kts | 237° |
| 2026-04-29 20:51 | -41.22201 | -70.85095 | 6857 ft | 158 kts | 237° |
| 2026-04-29 20:51 | -41.23104 | -70.86571 | 6690 ft | 152 kts | 238° |
| 2026-04-29 20:51 | -41.23539 | -70.87313 | 6600 ft | 153 kts | 238° |
| 2026-04-29 20:51 | -41.24148 | -70.88498 | 6495 ft | 156 kts | 253° |
| 2026-04-29 20:52 | -41.24114 | -70.89871 | 6356 ft | 154 kts | 290° |
| 2026-04-29 20:52 | -41.23445 | -70.91490 | 6199 ft | 143 kts | 285° |
| 2026-04-29 20:52 | -41.23107 | -70.92708 | 6213 ft | 137 kts | 287° |
| 2026-04-29 20:52 | -41.22711 | -70.93865 | 6214 ft | 138 kts | 290° |
| 2026-04-29 20:53 | -41.22443 | -70.94640 | 6121 ft | 141 kts | 290° |
| 2026-04-29 20:53 | -41.21916 | -70.96219 | 5800 ft | 136 kts | 288° |
| 2026-04-29 20:53 | -41.21659 | -70.96964 | 5703 ft | 130 kts | 290° |
| 2026-04-29 20:53 | -41.21158 | -70.98390 | 5457 ft | 130 kts | 290° |
| 2026-04-29 20:54 | -41.20433 | -71.00556 | 5098 ft | 129 kts | 290° |
| 2026-04-29 20:54 | -41.20200 | -71.01282 | 4971 ft | 124 kts | 290° |
| 2026-04-29 20:54 | -41.19706 | -71.02612 | 4747 ft | 118 kts | 290° |
| 2026-04-29 20:55 | -41.19487 | -71.03304 | 4665 ft | 122 kts | 290° |
| 2026-04-29 20:55 | -41.19130 | -71.04284 | 4489 ft | 117 kts | 291° |
| 2026-04-29 20:55 | -41.18807 | -71.05273 | 4291 ft | 114 kts | 292° |
| 2026-04-29 20:55 | -41.18456 | -71.06226 | 4219 ft | 116 kts | 292° |
| 2026-04-29 20:56 | -41.17995 | -71.07579 | 3958 ft | 121 kts | 292° |
| 2026-04-29 20:56 | -41.17763 | -71.08236 | 3802 ft | 116 kts | 294° |
| 2026-04-29 20:56 | -41.17323 | -71.09503 | 3649 ft | 114 kts | 293° |
| 2026-04-29 20:56 | -41.17091 | -71.10162 | 3543 ft | 120 kts | 293° |
| 2026-04-29 20:57 | -41.16628 | -71.11487 | 3308 ft | 117 kts | 295° |
| 2026-04-29 20:57 | -41.16289 | -71.12452 | 3157 ft | 117 kts | 294° |
| 2026-04-29 20:57 | -41.16050 | -71.13103 | 3045 ft | 117 kts | 295° |
| 2026-04-29 20:57 | -41.15592 | -71.14400 | 2841 ft | 117 kts | 294° |
| 2026-04-29 20:58 | -41.15247 | -71.15359 | 2795 ft | 112 kts | 293° |
| 2026-04-29 20:58 | -41.14971 | -71.16259 | 2784 ft | 89 kts | 296° |
| 2026-04-29 20:58 | -41.14807 | -71.16695 | 2784 ft | 21 kts | 296° |
| 2026-04-29 20:58 | -41.14767 | -71.16807 | 2784 ft | 11 kts | 295° |
| 2026-04-29 20:59 | -41.14733 | -71.16901 | 2784 ft | 11 kts | 298° |
| 2026-04-29 20:59 | -41.14682 | -71.16975 | 2784 ft | 10 kts | 330° |
| 2026-04-29 20:59 | -41.14657 | -71.17020 | 2784 ft | 7 kts | 252° |
| 2026-04-29 20:59 | -41.14703 | -71.16981 | 2784 ft | 12 kts | 103° |
| 2026-04-29 21:00 | -41.14740 | -71.16846 | 2784 ft | 18 kts | 114° |
| 2026-04-29 21:00 | -41.14803 | -71.16663 | 2784 ft | 23 kts | 115° |
| 2026-04-29 21:00 | -41.14869 | -71.16474 | 2784 ft | 19 kts | 114° |
| 2026-04-29 21:00 | -41.14883 | -71.16356 | 2784 ft | 7 kts | 59° |
| 2026-04-29 21:01 | -41.14858 | -71.16324 | 2784 ft | 5 kts | 28° |
| 2026-04-29 21:01 | -41.14853 | -71.16321 | 2784 ft | 0 kts | 26° |
| 2026-04-29 21:03 | -41.14847 | -71.16317 | 2784 ft | 3 kts | 25° |
| 2026-04-29 21:03 | -41.14814 | -71.16295 | 2784 ft | 6 kts | 30° |
| 2026-04-29 21:03 | -41.14777 | -71.16270 | 2784 ft | 5 kts | 30° |
| 2026-04-29 21:04 | -41.14759 | -71.16245 | 2784 ft | 6 kts | 58° |
| 2026-04-29 21:04 | -41.14727 | -71.16147 | 2784 ft | 7 kts | 72° |
| 2026-04-29 21:04 | -41.14714 | -71.16122 | 2784 ft | 5 kts | 28° |
| 2026-04-29 21:04 | -41.14696 | -71.16110 | 2784 ft | 0 kts | 24° |